Aeroporto :
LOGIN :

Iscrizione | Disclaimer

   EN    FR    IT 

 










Sommario :    VFR   VFR Marginale   IFR   IFR Intensivo   IFR Molto Intensivo
Visibilità : 
Base nubi : 
>= 8 km
>= 3000ft
5 / 8 km
1000 / 3000 ft
1500m / 5 km
500 / 1000 ft
800 / 1500m
200 / 500 ft
< 800m
< 200 ft
Simboli :   Temporali  Nebbia  Neve Forte  Precipitazioni Forti  Vento > 20 kt
SIGMETs :   Varie  Temporali  Ghiacco  Turbolenza  Onda orograficha  Ceneri Vulcaniche






- Altitudine del aeroporto : 499 ft
- Codice IATA : TLS


LFBO - Toulouse / Blagnac

ULTIMO METAR :
  • 290630Z AUTO 19004KT CAVOK 15/13 Q1019 NOSIG

METARs OBSOLETI :
  • 290600Z AUTO 19004KT CAVOK 14/13 Q1019 NOSIG
  • 290530Z AUTO 19003KT 150V210 CAVOK 14/12 Q1019 NOSIG
  • 290500Z AUTO 19003KT CAVOK 13/12 Q1019 NOSIG
  • 290430Z AUTO 19003KT CAVOK 13/12 Q1019 NOSIG
  • 290400Z AUTO 20002KT CAVOK 13/12 Q1019 NOSIG
  • 290330Z AUTO 19003KT CAVOK 13/12 Q1019 NOSIG
  • 290300Z AUTO 18003KT CAVOK 13/12 Q1019 NOSIG
  • 290230Z AUTO 19003KT CAVOK 13/12 Q1019 NOSIG
  • 290200Z AUTO 19004KT CAVOK 13/12 Q1019 NOSIG

TAF TAF LFBO
Valido dal 29 a 06 ore il 30 a 12 ore UTC


290500Z 2906/3012 26004KT CAVOK
BECMG 3003/3006 BKN013 OVC040
TEMPO 3008/3012 3000 -RADZ OVC005
ATIS : +33 5 62 74 66 36



MetMap, La meteo Aeronautica in un colpo d'occhio ! - Copyright ORBIFLY Dicembre 2007 - Disclaimer

ORBIFLY MET'MAP TEAM :

Programmazione e sviluppo : Alexandra Zaïnal
Concezione : Baudouin d'Aumeries
Supporto tecnico e logistico : Manuel Goepfert
Aiuto : Marc-Olivier Méhu
Aiuto per la traduzione : Arnaldo La Scala




FONTI E CREDITI :

   NOAA